createdAt,value
2022-08-11T00:00:02.092Z,87.00
2022-08-11T00:05:15.115Z,87.60
2022-08-11T00:10:23.325Z,87.90
2022-08-11T00:15:29.468Z,88.10
2022-08-11T00:20:35.006Z,88.40
2022-08-11T00:25:46.392Z,87.90
2022-08-11T00:30:50.485Z,89.10
2022-08-11T00:35:59.699Z,89.20
2022-08-11T00:41:14.870Z,88.70
2022-08-11T00:46:26.692Z,89.30
2022-08-11T00:52:05.159Z,88.70
2022-08-11T00:57:37.273Z,89.50
2022-08-11T01:03:15.038Z,89.80
2022-08-11T01:08:21.018Z,89.30
2022-08-11T01:14:15.137Z,89.80
2022-08-11T01:20:45.933Z,90.20
2022-08-11T01:25:57.101Z,90.50
2022-08-11T01:31:23.763Z,90.50
2022-08-11T01:36:57.274Z,90.60
2022-08-11T01:42:50.019Z,90.80
2022-08-11T01:48:22.651Z,91.80
2022-08-11T01:53:37.264Z,91.90
2022-08-11T01:59:26.039Z,92.30
2022-08-11T02:04:42.237Z,93.20
2022-08-11T02:09:56.499Z,93.50
2022-08-11T02:15:26.305Z,93.50
2022-08-11T02:21:07.077Z,93.30
2022-08-11T02:26:11.921Z,93.50
2022-08-11T02:32:24.342Z,93.20
2022-08-11T02:37:29.001Z,93.70
2022-08-11T02:42:47.315Z,94.00
2022-08-11T02:48:22.070Z,94.30
2022-08-11T02:53:43.503Z,94.00
2022-08-11T02:59:28.545Z,94.30
2022-08-11T03:04:57.498Z,95.00
2022-08-11T03:10:21.412Z,95.80
2022-08-11T03:16:06.641Z,97.10
2022-08-11T03:21:09.276Z,97.40
2022-08-11T03:26:43.163Z,97.40
2022-08-11T03:32:10.113Z,97.40
2022-08-11T03:37:50.502Z,97.60
2022-08-11T03:43:07.985Z,97.80
2022-08-11T03:48:28.102Z,98.10
2022-08-11T03:54:01.973Z,98.50
2022-08-11T03:59:21.024Z,99.10
2022-08-11T04:04:51.361Z,99.60
2022-08-11T04:10:28.234Z,99.90
2022-08-11T04:16:11.304Z,99.90
2022-08-11T04:21:42.433Z,99.90
2022-08-11T04:27:00.004Z,99.90
2022-08-11T04:32:29.911Z,99.90
2022-08-11T04:37:59.092Z,99.90
2022-08-11T04:43:22.853Z,99.90
2022-08-11T04:49:06.155Z,99.90
2022-08-11T04:55:01.642Z,99.90
2022-08-11T05:00:29.115Z,99.90
2022-08-11T05:06:02.411Z,98.70
2022-08-11T05:11:36.144Z,98.60
2022-08-11T05:17:01.488Z,98.30
2022-08-11T05:22:30.507Z,96.20
2022-08-11T05:28:02.788Z,96.40
2022-08-11T05:33:29.306Z,95.00
2022-08-11T05:38:54.873Z,96.10
2022-08-11T05:44:22.651Z,96.90
2022-08-11T05:49:49.070Z,97.40
2022-08-11T05:55:10.820Z,99.90
2022-08-11T06:00:15.212Z,99.90
2022-08-11T06:05:43.686Z,99.90
2022-08-11T06:10:47.643Z,99.90
2022-08-11T06:15:52.528Z,99.90
2022-08-11T06:20:57.940Z,99.90
2022-08-11T06:26:01.700Z,99.90
2022-08-11T06:31:14.185Z,99.90
2022-08-11T06:36:25.892Z,99.90
2022-08-11T06:41:44.503Z,99.90
2022-08-11T06:46:51.115Z,99.90
2022-08-11T06:52:01.644Z,99.90
2022-08-11T06:57:29.837Z,99.90
2022-08-11T07:02:53.499Z,99.90
2022-08-11T07:08:33.959Z,99.90
2022-08-11T07:13:58.444Z,99.90
2022-08-11T07:19:26.466Z,99.90
2022-08-11T07:25:01.439Z,99.90
2022-08-11T07:30:09.267Z,99.90
2022-08-11T07:35:16.416Z,99.70
2022-08-11T07:40:23.971Z,99.10
2022-08-11T07:45:46.064Z,99.90
2022-08-11T07:51:07.835Z,99.90
2022-08-11T07:56:11.167Z,97.80
2022-08-11T08:01:41.320Z,97.30
2022-08-11T08:07:03.947Z,96.60
2022-08-11T08:12:27.006Z,97.20
2022-08-11T08:18:20.584Z,96.80
2022-08-11T08:23:14.616Z,97.80
2022-08-11T08:28:19.725Z,97.30
2022-08-11T08:33:42.150Z,96.70
2022-08-11T08:38:51.173Z,97.90
2022-08-11T08:44:14.944Z,95.30
2022-08-11T08:49:25.444Z,94.60
2022-08-11T08:54:37.092Z,95.80
2022-08-11T08:59:48.865Z,93.90
2022-08-11T09:04:52.768Z,93.00
2022-08-11T09:09:59.071Z,92.80
2022-08-11T09:15:05.452Z,90.20
2022-08-11T09:20:25.569Z,90.70
2022-08-11T09:25:50.205Z,88.00
2022-08-11T09:30:53.726Z,86.00
2022-08-11T09:35:57.308Z,81.90
2022-08-11T09:41:02.907Z,80.60
2022-08-11T09:46:07.065Z,78.70
2022-08-11T09:51:10.652Z,74.30
2022-08-11T09:56:37.662Z,73.00
2022-08-11T10:01:47.309Z,73.70
2022-08-11T10:07:04.191Z,70.40
2022-08-11T10:12:33.186Z,66.70
2022-08-11T10:17:39.409Z,68.20
2022-08-11T10:23:01.598Z,69.30
2022-08-11T10:28:28.982Z,67.60
2022-08-11T10:33:57.499Z,63.80
2022-08-11T10:39:05.191Z,60.90
2022-08-11T10:44:10.477Z,62.40
2022-08-11T10:49:13.408Z,61.80
2022-08-11T10:54:34.990Z,61.30
2022-08-11T10:59:38.015Z,60.00
2022-08-11T11:04:51.580Z,62.50
2022-08-11T11:10:02.414Z,60.20
2022-08-11T11:15:25.541Z,60.60
2022-08-11T11:20:37.833Z,58.30
2022-08-11T11:26:06.678Z,59.80
2022-08-11T11:31:44.628Z,59.10
2022-08-11T11:36:58.631Z,59.60
2022-08-11T11:42:04.888Z,56.70
2022-08-11T11:47:08.277Z,57.20
2022-08-11T11:52:21.921Z,56.50
2022-08-11T11:58:02.752Z,58.00
2022-08-11T12:03:11.485Z,57.20
2022-08-11T12:08:16.501Z,59.50
2022-08-11T12:13:38.371Z,56.00
2022-08-11T12:18:43.245Z,57.70
2022-08-11T12:24:07.636Z,59.50
2022-08-11T12:29:14.837Z,55.80
2022-08-11T12:34:18.264Z,56.30
2022-08-11T12:40:15.706Z,56.70
2022-08-11T12:45:28.124Z,57.20
2022-08-11T12:50:52.908Z,57.40
2022-08-11T12:56:16.334Z,58.30
2022-08-11T13:01:38.095Z,58.80
2022-08-11T13:06:42.435Z,58.00
2022-08-11T13:12:04.223Z,58.00
2022-08-11T13:17:21.669Z,59.00
2022-08-11T13:22:47.042Z,57.70
2022-08-11T13:32:59.682Z,55.40
2022-08-11T13:38:17.976Z,56.10
2022-08-11T13:43:23.452Z,57.40
2022-08-11T13:48:28.376Z,58.70
2022-08-11T13:53:32.570Z,55.50
2022-08-11T13:58:40.013Z,58.00
2022-08-11T14:04:29.734Z,54.60
2022-08-11T14:09:09.780Z,56.50
2022-08-11T14:14:18.907Z,54.70
2022-08-11T14:19:24.476Z,56.90
2022-08-11T14:24:27.575Z,56.10
2022-08-11T14:29:32.516Z,56.10
2022-08-11T14:34:50.165Z,56.30
2022-08-11T14:40:03.877Z,56.10
2022-08-11T14:45:27.671Z,55.80
2022-08-11T14:50:50.604Z,54.80
2022-08-11T14:56:12.972Z,56.60
2022-08-11T15:01:33.811Z,57.80
2022-08-11T15:06:37.295Z,57.90
2022-08-11T15:11:59.064Z,56.20
2022-08-11T15:17:07.809Z,54.60
2022-08-11T15:22:29.252Z,55.40
2022-08-11T15:27:53.143Z,55.90
2022-08-11T15:33:15.133Z,56.10
2022-08-11T15:38:19.799Z,55.20
2022-08-11T15:43:46.399Z,55.50
2022-08-11T15:48:57.787Z,54.00
2022-08-11T15:54:09.270Z,55.50
2022-08-11T15:59:42.134Z,55.20
2022-08-11T16:04:47.437Z,54.60
2022-08-11T16:10:02.985Z,55.30
2022-08-11T16:15:29.037Z,54.50
2022-08-11T16:20:32.611Z,54.60
2022-08-11T16:27:03.825Z,54.70
2022-08-11T16:30:59.139Z,54.10
2022-08-11T16:36:21.512Z,54.50
2022-08-11T16:41:44.981Z,55.70
2022-08-11T16:47:00.465Z,55.60
2022-08-11T16:52:05.314Z,55.70
2022-08-11T16:57:42.682Z,55.00
2022-08-11T17:03:07.999Z,56.50
2022-08-11T17:08:29.396Z,57.00
2022-08-11T17:13:46.567Z,56.90
2022-08-11T17:19:15.145Z,57.50
2022-08-11T17:24:17.855Z,56.80
2022-08-11T17:29:24.509Z,56.00
2022-08-11T17:34:46.535Z,56.70
2022-08-11T17:39:50.640Z,57.10
2022-08-11T17:45:13.350Z,56.70
2022-08-11T17:50:18.217Z,57.00
2022-08-11T17:55:55.027Z,58.20
2022-08-11T18:01:02.015Z,57.20
2022-08-11T18:06:13.946Z,56.80
2022-08-11T18:12:11.239Z,58.00
2022-08-11T18:17:16.780Z,58.40
2022-08-11T18:22:43.195Z,59.40
2022-08-11T18:28:06.987Z,59.60
2022-08-11T18:34:03.462Z,60.10
2022-08-11T18:39:11.348Z,60.30
2022-08-11T18:44:34.345Z,60.70
2022-08-11T18:50:03.606Z,60.90
2022-08-11T18:55:35.814Z,61.40
2022-08-11T19:00:59.033Z,62.20
2022-08-11T19:06:39.504Z,62.40
2022-08-11T19:12:03.428Z,62.00
2022-08-11T19:17:45.126Z,62.40
2022-08-11T19:23:08.022Z,61.70
2022-08-11T19:28:30.914Z,62.60
2022-08-11T19:34:00.340Z,61.90
2022-08-11T19:39:32.663Z,62.80
2022-08-11T19:44:54.187Z,62.80
2022-08-11T19:50:20.169Z,63.00
2022-08-11T19:55:46.699Z,62.80
2022-08-11T20:01:08.070Z,63.40
2022-08-11T20:06:30.302Z,63.30
2022-08-11T20:12:01.271Z,63.80
2022-08-11T20:17:23.065Z,64.00
2022-08-11T20:22:46.461Z,63.60
2022-08-11T20:28:08.450Z,64.40
2022-08-11T20:33:30.001Z,64.20
2022-08-11T20:38:51.827Z,65.00
2022-08-11T20:44:15.142Z,65.40
2022-08-11T20:49:45.039Z,65.10
2022-08-11T20:55:19.077Z,65.00
2022-08-11T21:00:47.313Z,64.40
2022-08-11T21:06:11.093Z,64.40
2022-08-11T21:11:34.552Z,64.20
2022-08-11T21:16:56.516Z,65.10
2022-08-11T21:22:21.356Z,65.90
2022-08-11T21:27:52.086Z,66.00
2022-08-11T21:33:13.665Z,65.30
2022-08-11T21:38:36.226Z,66.00
2022-08-11T21:43:59.004Z,66.20
2022-08-11T21:49:20.785Z,66.20
2022-08-11T21:54:43.819Z,65.70
2022-08-11T22:00:13.831Z,65.50
2022-08-11T22:05:36.025Z,65.30
2022-08-11T22:10:57.651Z,66.50
2022-08-11T22:16:19.147Z,67.50
2022-08-11T22:22:01.244Z,68.80
2022-08-11T22:27:22.886Z,68.10
2022-08-11T22:32:44.816Z,68.30
2022-08-11T22:38:06.646Z,68.50
2022-08-11T22:43:27.565Z,69.00
2022-08-11T22:48:49.970Z,69.50
2022-08-11T22:54:12.797Z,70.40
2022-08-11T22:59:35.632Z,71.20
2022-08-11T23:04:57.646Z,71.80
2022-08-11T23:10:18.987Z,72.70
2022-08-11T23:15:41.098Z,73.60
2022-08-11T23:21:04.182Z,73.80
2022-08-11T23:26:26.401Z,74.40
2022-08-11T23:31:53.470Z,74.40
2022-08-11T23:37:14.662Z,74.60
2022-08-11T23:42:36.237Z,74.00
2022-08-11T23:47:59.899Z,74.70
2022-08-11T23:53:21.577Z,75.10
2022-08-11T23:58:42.550Z,74.80
